sensor_id;sensor_type;location;lat;lon;timestamp;temperature;humidity
5697;DHT22;2873;50.966;7.210;2024-03-17T00:02:06;8.00;99.90
5697;DHT22;2873;50.966;7.210;2024-03-17T00:04:31;8.00;99.90
5697;DHT22;2873;50.966;7.210;2024-03-17T00:06:57;7.90;99.90
5697;DHT22;2873;50.966;7.210;2024-03-17T00:09:23;7.90;99.90
5697;DHT22;2873;50.966;7.210;2024-03-17T00:11:49;7.90;99.90
5697;DHT22;2873;50.966;7.210;2024-03-17T00:14:15;7.90;99.90
5697;DHT22;2873;50.966;7.210;2024-03-17T00:16:42;7.90;99.90
5697;DHT22;2873;50.966;7.210;2024-03-17T00:19:08;7.90;99.90
5697;DHT22;2873;50.966;7.210;2024-03-17T00:21:34;7.80;99.90
5697;DHT22;2873;50.966;7.210;2024-03-17T00:23:59;7.70;99.90
5697;DHT22;2873;50.966;7.210;2024-03-17T00:26:25;7.70;99.90
5697;DHT22;2873;50.966;7.210;2024-03-17T00:28:50;7.90;99.90
5697;DHT22;2873;50.966;7.210;2024-03-17T00:31:16;7.80;99.90
5697;DHT22;2873;50.966;7.210;2024-03-17T00:33:42;7.70;99.90
5697;DHT22;2873;50.966;7.210;2024-03-17T00:36:07;7.60;99.90
5697;DHT22;2873;50.966;7.210;2024-03-17T00:38:33;7.60;99.90
5697;DHT22;2873;50.966;7.210;2024-03-17T00:40:59;7.60;99.90
5697;DHT22;2873;50.966;7.210;2024-03-17T00:43:25;7.60;99.90
5697;DHT22;2873;50.966;7.210;2024-03-17T00:45:53;7.60;99.90
5697;DHT22;2873;50.966;7.210;2024-03-17T00:48:19;7.70;99.90
5697;DHT22;2873;50.966;7.210;2024-03-17T00:50:45;7.60;99.90
5697;DHT22;2873;50.966;7.210;2024-03-17T00:53:11;7.70;99.90
5697;DHT22;2873;50.966;7.210;2024-03-17T00:55:37;7.60;99.90
5697;DHT22;2873;50.966;7.210;2024-03-17T00:58:02;7.60;99.90
5697;DHT22;2873;50.966;7.210;2024-03-17T01:00:28;7.70;99.90
5697;DHT22;2873;50.966;7.210;2024-03-17T01:02:54;7.80;99.90
5697;DHT22;2873;50.966;7.210;2024-03-17T01:05:20;7.60;99.90
5697;DHT22;2873;50.966;7.210;2024-03-17T01:07:45;7.50;99.90
5697;DHT22;2873;50.966;7.210;2024-03-17T01:10:13;7.50;99.90
5697;DHT22;2873;50.966;7.210;2024-03-17T01:12:38;7.70;99.90
5697;DHT22;2873;50.966;7.210;2024-03-17T01:15:08;7.70;99.90
5697;DHT22;2873;50.966;7.210;2024-03-17T01:17:33;7.70;99.90
5697;DHT22;2873;50.966;7.210;2024-03-17T01:19:59;7.80;99.90
5697;DHT22;2873;50.966;7.210;2024-03-17T01:22:25;7.70;99.90
5697;DHT22;2873;50.966;7.210;2024-03-17T01:24:50;7.70;99.90
5697;DHT22;2873;50.966;7.210;2024-03-17T01:27:16;7.70;99.90
5697;DHT22;2873;50.966;7.210;2024-03-17T01:29:42;7.80;99.90
5697;DHT22;2873;50.966;7.210;2024-03-17T01:32:09;7.80;99.90
5697;DHT22;2873;50.966;7.210;2024-03-17T01:34:34;7.80;99.90
5697;DHT22;2873;50.966;7.210;2024-03-17T01:37:00;7.70;99.90
5697;DHT22;2873;50.966;7.210;2024-03-17T01:39:26;7.80;99.90
5697;DHT22;2873;50.966;7.210;2024-03-17T01:41:51;7.80;99.90
5697;DHT22;2873;50.966;7.210;2024-03-17T01:44:26;7.80;99.90
5697;DHT22;2873;50.966;7.210;2024-03-17T01:46:52;7.80;99.90
5697;DHT22;2873;50.966;7.210;2024-03-17T01:49:19;7.70;99.90
5697;DHT22;2873;50.966;7.210;2024-03-17T01:51:45;7.70;99.90
5697;DHT22;2873;50.966;7.210;2024-03-17T01:54:12;7.60;99.90
5697;DHT22;2873;50.966;7.210;2024-03-17T01:56:39;7.70;99.90
5697;DHT22;2873;50.966;7.210;2024-03-17T01:59:08;7.60;99.90
5697;DHT22;2873;50.966;7.210;2024-03-17T02:01:39;7.60;99.90
5697;DHT22;2873;50.966;7.210;2024-03-17T02:04:06;7.70;99.90
5697;DHT22;2873;50.966;7.210;2024-03-17T02:06:32;7.70;99.90
5697;DHT22;2873;50.966;7.210;2024-03-17T02:08:58;7.70;99.90
5697;DHT22;2873;50.966;7.210;2024-03-17T02:11:30;7.70;99.90
5697;DHT22;2873;50.966;7.210;2024-03-17T02:13:56;7.60;99.90
5697;DHT22;2873;50.966;7.210;2024-03-17T02:16:23;7.50;99.90
5697;DHT22;2873;50.966;7.210;2024-03-17T02:18:49;7.60;99.90
5697;DHT22;2873;50.966;7.210;2024-03-17T02:21:15;7.50;99.90
5697;DHT22;2873;50.966;7.210;2024-03-17T02:23:43;7.50;99.90
5697;DHT22;2873;50.966;7.210;2024-03-17T02:26:10;7.50;99.90
5697;DHT22;2873;50.966;7.210;2024-03-17T02:28:42;7.50;99.90
5697;DHT22;2873;50.966;7.210;2024-03-17T02:31:09;7.40;99.90
5697;DHT22;2873;50.966;7.210;2024-03-17T02:33:36;7.40;99.90
5697;DHT22;2873;50.966;7.210;2024-03-17T02:36:02;7.50;99.90
5697;DHT22;2873;50.966;7.210;2024-03-17T02:38:36;7.50;99.90
5697;DHT22;2873;50.966;7.210;2024-03-17T02:41:20;7.40;99.90
5697;DHT22;2873;50.966;7.210;2024-03-17T02:43:47;7.40;99.90
5697;DHT22;2873;50.966;7.210;2024-03-17T02:46:14;7.40;99.90
5697;DHT22;2873;50.966;7.210;2024-03-17T02:48:40;7.40;99.90
5697;DHT22;2873;50.966;7.210;2024-03-17T02:51:11;7.30;99.90
5697;DHT22;2873;50.966;7.210;2024-03-17T02:53:37;7.30;99.90
5697;DHT22;2873;50.966;7.210;2024-03-17T02:56:03;7.30;99.90
5697;DHT22;2873;50.966;7.210;2024-03-17T02:58:29;7.30;99.90
5697;DHT22;2873;50.966;7.210;2024-03-17T03:00:54;7.20;99.90
5697;DHT22;2873;50.966;7.210;2024-03-17T03:03:20;7.20;99.90
5697;DHT22;2873;50.966;7.210;2024-03-17T03:05:45;7.20;99.90
5697;DHT22;2873;50.966;7.210;2024-03-17T03:08:11;7.20;99.90
5697;DHT22;2873;50.966;7.210;2024-03-17T03:10:36;7.10;99.90
5697;DHT22;2873;50.966;7.210;2024-03-17T03:13:03;7.10;99.90
5697;DHT22;2873;50.966;7.210;2024-03-17T03:15:31;7.10;99.90
5697;DHT22;2873;50.966;7.210;2024-03-17T03:17:58;7.10;99.90
5697;DHT22;2873;50.966;7.210;2024-03-17T03:20:23;7.10;99.90
5697;DHT22;2873;50.966;7.210;2024-03-17T03:22:49;7.20;99.90
5697;DHT22;2873;50.966;7.210;2024-03-17T03:25:14;7.10;99.90
5697;DHT22;2873;50.966;7.210;2024-03-17T03:27:40;7.10;99.90
5697;DHT22;2873;50.966;7.210;2024-03-17T03:30:06;7.10;99.90
5697;DHT22;2873;50.966;7.210;2024-03-17T03:32:34;7.00;99.90
5697;DHT22;2873;50.966;7.210;2024-03-17T03:34:59;7.00;99.90
5697;DHT22;2873;50.966;7.210;2024-03-17T03:37:25;7.10;99.90
5697;DHT22;2873;50.966;7.210;2024-03-17T03:39:51;6.90;99.90
5697;DHT22;2873;50.966;7.210;2024-03-17T03:42:17;6.90;99.90
5697;DHT22;2873;50.966;7.210;2024-03-17T03:44:42;6.90;99.90
5697;DHT22;2873;50.966;7.210;2024-03-17T03:47:08;6.80;99.90
5697;DHT22;2873;50.966;7.210;2024-03-17T03:49:34;6.80;99.90
5697;DHT22;2873;50.966;7.210;2024-03-17T03:51:59;6.80;99.90
5697;DHT22;2873;50.966;7.210;2024-03-17T03:54:25;6.70;99.90
5697;DHT22;2873;50.966;7.210;2024-03-17T03:56:50;6.70;99.90
5697;DHT22;2873;50.966;7.210;2024-03-17T03:59:16;6.70;99.90
5697;DHT22;2873;50.966;7.210;2024-03-17T04:01:42;6.80;99.90
5697;DHT22;2873;50.966;7.210;2024-03-17T04:04:08;6.90;99.90
5697;DHT22;2873;50.966;7.210;2024-03-17T04:06:33;6.80;99.90
5697;DHT22;2873;50.966;7.210;2024-03-17T04:08:59;6.70;99.90
5697;DHT22;2873;50.966;7.210;2024-03-17T04:11:24;6.60;99.90
5697;DHT22;2873;50.966;7.210;2024-03-17T04:13:50;6.70;99.90
5697;DHT22;2873;50.966;7.210;2024-03-17T04:16:16;6.60;99.90
5697;DHT22;2873;50.966;7.210;2024-03-17T04:18:42;6.60;99.90
5697;DHT22;2873;50.966;7.210;2024-03-17T04:21:07;6.60;99.90
5697;DHT22;2873;50.966;7.210;2024-03-17T04:23:33;6.60;99.90
5697;DHT22;2873;50.966;7.210;2024-03-17T04:26:00;6.50;99.90
5697;DHT22;2873;50.966;7.210;2024-03-17T04:28:26;6.60;99.90
5697;DHT22;2873;50.966;7.210;2024-03-17T04:30:52;6.50;99.90
5697;DHT22;2873;50.966;7.210;2024-03-17T04:33:17;6.50;99.90
5697;DHT22;2873;50.966;7.210;2024-03-17T04:35:43;6.50;99.90
5697;DHT22;2873;50.966;7.210;2024-03-17T04:38:09;6.50;99.90
5697;DHT22;2873;50.966;7.210;2024-03-17T04:40:41;6.60;99.90
5697;DHT22;2873;50.966;7.210;2024-03-17T04:43:08;6.60;99.90
5697;DHT22;2873;50.966;7.210;2024-03-17T04:45:33;6.60;99.90
5697;DHT22;2873;50.966;7.210;2024-03-17T04:47:59;6.50;99.90
5697;DHT22;2873;50.966;7.210;2024-03-17T04:50:24;6.50;99.90
5697;DHT22;2873;50.966;7.210;2024-03-17T04:52:51;6.50;99.90
5697;DHT22;2873;50.966;7.210;2024-03-17T04:55:17;6.50;99.90
5697;DHT22;2873;50.966;7.210;2024-03-17T04:57:44;6.40;99.90
5697;DHT22;2873;50.966;7.210;2024-03-17T05:00:10;6.40;99.90
5697;DHT22;2873;50.966;7.210;2024-03-17T05:02:37;6.50;99.90
5697;DHT22;2873;50.966;7.210;2024-03-17T05:05:03;6.50;99.90
5697;DHT22;2873;50.966;7.210;2024-03-17T05:07:31;6.50;99.90
5697;DHT22;2873;50.966;7.210;2024-03-17T05:09:56;6.50;99.90
5697;DHT22;2873;50.966;7.210;2024-03-17T05:12:22;6.50;99.90
5697;DHT22;2873;50.966;7.210;2024-03-17T05:14:48;6.40;99.90
5697;DHT22;2873;50.966;7.210;2024-03-17T05:17:13;6.30;99.90
5697;DHT22;2873;50.966;7.210;2024-03-17T05:19:39;6.30;99.90
5697;DHT22;2873;50.966;7.210;2024-03-17T05:22:04;6.30;99.90
5697;DHT22;2873;50.966;7.210;2024-03-17T05:24:30;6.30;99.90
5697;DHT22;2873;50.966;7.210;2024-03-17T05:26:56;6.20;99.90
5697;DHT22;2873;50.966;7.210;2024-03-17T05:29:21;6.30;99.90
5697;DHT22;2873;50.966;7.210;2024-03-17T05:31:49;6.20;99.90
5697;DHT22;2873;50.966;7.210;2024-03-17T05:34:14;6.20;99.90
5697;DHT22;2873;50.966;7.210;2024-03-17T05:36:40;6.20;99.90
5697;DHT22;2873;50.966;7.210;2024-03-17T05:39:05;6.30;99.90
5697;DHT22;2873;50.966;7.210;2024-03-17T05:41:31;6.30;99.90
5697;DHT22;2873;50.966;7.210;2024-03-17T05:43:57;6.30;99.90
5697;DHT22;2873;50.966;7.210;2024-03-17T05:46:29;6.40;99.90
5697;DHT22;2873;50.966;7.210;2024-03-17T05:48:55;6.40;99.90
5697;DHT22;2873;50.966;7.210;2024-03-17T05:51:21;6.40;99.90
5697;DHT22;2873;50.966;7.210;2024-03-17T05:53:47;6.40;99.90
5697;DHT22;2873;50.966;7.210;2024-03-17T05:56:13;6.50;99.90
5697;DHT22;2873;50.966;7.210;2024-03-17T05:58:41;6.60;99.90
5697;DHT22;2873;50.966;7.210;2024-03-17T06:01:07;6.60;99.90
5697;DHT22;2873;50.966;7.210;2024-03-17T06:03:36;6.50;99.90
5697;DHT22;2873;50.966;7.210;2024-03-17T06:06:02;6.60;99.90
5697;DHT22;2873;50.966;7.210;2024-03-17T06:08:29;6.50;99.90
5697;DHT22;2873;50.966;7.210;2024-03-17T06:10:55;6.50;99.90
5697;DHT22;2873;50.966;7.210;2024-03-17T06:13:23;6.50;99.90
5697;DHT22;2873;50.966;7.210;2024-03-17T06:15:50;6.50;99.90
5697;DHT22;2873;50.966;7.210;2024-03-17T06:18:15;6.50;99.90
5697;DHT22;2873;50.966;7.210;2024-03-17T06:20:44;6.60;99.90
5697;DHT22;2873;50.966;7.210;2024-03-17T06:23:16;6.60;99.90
5697;DHT22;2873;50.966;7.210;2024-03-17T06:28:09;6.70;99.90
5697;DHT22;2873;50.966;7.210;2024-03-17T06:30:36;6.70;99.90
5697;DHT22;2873;50.966;7.210;2024-03-17T06:33:02;6.70;99.90
5697;DHT22;2873;50.966;7.210;2024-03-17T06:35:27;6.70;99.90
5697;DHT22;2873;50.966;7.210;2024-03-17T06:37:59;6.70;99.90
5697;DHT22;2873;50.966;7.210;2024-03-17T06:40:25;6.80;99.90
5697;DHT22;2873;50.966;7.210;2024-03-17T06:42:50;6.80;99.90
5697;DHT22;2873;50.966;7.210;2024-03-17T06:45:17;6.70;99.90
5697;DHT22;2873;50.966;7.210;2024-03-17T06:47:45;6.80;99.90
5697;DHT22;2873;50.966;7.210;2024-03-17T06:50:11;6.80;99.90
5697;DHT22;2873;50.966;7.210;2024-03-17T06:52:37;6.80;99.90
5697;DHT22;2873;50.966;7.210;2024-03-17T06:55:06;6.90;99.90
5697;DHT22;2873;50.966;7.210;2024-03-17T06:57:32;7.10;99.90
5697;DHT22;2873;50.966;7.210;2024-03-17T06:59:59;7.30;99.90
5697;DHT22;2873;50.966;7.210;2024-03-17T07:02:25;7.30;99.90
5697;DHT22;2873;50.966;7.210;2024-03-17T07:04:50;7.30;99.90
5697;DHT22;2873;50.966;7.210;2024-03-17T07:07:16;7.30;99.90
5697;DHT22;2873;50.966;7.210;2024-03-17T07:09:42;7.40;99.90
5697;DHT22;2873;50.966;7.210;2024-03-17T07:12:08;7.50;99.90
5697;DHT22;2873;50.966;7.210;2024-03-17T07:14:35;7.50;99.90
5697;DHT22;2873;50.966;7.210;2024-03-17T07:17:00;7.50;99.90
5697;DHT22;2873;50.966;7.210;2024-03-17T07:19:26;7.50;99.90
5697;DHT22;2873;50.966;7.210;2024-03-17T07:21:51;7.50;99.90
5697;DHT22;2873;50.966;7.210;2024-03-17T07:24:17;7.50;99.90
5697;DHT22;2873;50.966;7.210;2024-03-17T07:26:43;7.50;99.90
5697;DHT22;2873;50.966;7.210;2024-03-17T07:29:09;7.60;99.90
5697;DHT22;2873;50.966;7.210;2024-03-17T07:31:34;7.70;99.90
5697;DHT22;2873;50.966;7.210;2024-03-17T07:34:00;7.80;99.90
5697;DHT22;2873;50.966;7.210;2024-03-17T07:36:25;7.90;99.90
5697;DHT22;2873;50.966;7.210;2024-03-17T07:38:51;7.90;99.90
5697;DHT22;2873;50.966;7.210;2024-03-17T07:41:17;8.00;99.90
5697;DHT22;2873;50.966;7.210;2024-03-17T07:43:45;8.10;99.90
5697;DHT22;2873;50.966;7.210;2024-03-17T07:46:11;7.90;99.90
5697;DHT22;2873;50.966;7.210;2024-03-17T07:48:39;8.20;99.90
5697;DHT22;2873;50.966;7.210;2024-03-17T07:51:06;8.30;99.90
5697;DHT22;2873;50.966;7.210;2024-03-17T07:53:33;8.50;99.90
5697;DHT22;2873;50.966;7.210;2024-03-17T07:56:06;8.60;99.90
5697;DHT22;2873;50.966;7.210;2024-03-17T07:58:35;8.50;99.90
5697;DHT22;2873;50.966;7.210;2024-03-17T08:01:02;8.40;99.90
5697;DHT22;2873;50.966;7.210;2024-03-17T08:03:29;8.50;99.90
5697;DHT22;2873;50.966;7.210;2024-03-17T08:05:55;8.60;99.90
5697;DHT22;2873;50.966;7.210;2024-03-17T08:08:21;8.50;99.90
5697;DHT22;2873;50.966;7.210;2024-03-17T08:10:46;8.70;99.90
5697;DHT22;2873;50.966;7.210;2024-03-17T08:13:14;8.80;99.90
5697;DHT22;2873;50.966;7.210;2024-03-17T08:15:42;8.60;99.90
5697;DHT22;2873;50.966;7.210;2024-03-17T08:18:09;8.60;99.90
5697;DHT22;2873;50.966;7.210;2024-03-17T08:23:04;8.70;99.90
5697;DHT22;2873;50.966;7.210;2024-03-17T08:25:31;8.60;99.90
5697;DHT22;2873;50.966;7.210;2024-03-17T08:27:57;8.90;99.90
5697;DHT22;2873;50.966;7.210;2024-03-17T08:30:22;9.10;99.90
5697;DHT22;2873;50.966;7.210;2024-03-17T08:32:48;9.20;99.90
5697;DHT22;2873;50.966;7.210;2024-03-17T08:35:13;9.40;99.90
5697;DHT22;2873;50.966;7.210;2024-03-17T08:37:39;9.40;99.90
5697;DHT22;2873;50.966;7.210;2024-03-17T08:40:05;9.40;99.90
5697;DHT22;2873;50.966;7.210;2024-03-17T08:42:33;9.70;99.90
5697;DHT22;2873;50.966;7.210;2024-03-17T08:44:59;9.50;99.90
5697;DHT22;2873;50.966;7.210;2024-03-17T08:47:24;9.40;99.90
5697;DHT22;2873;50.966;7.210;2024-03-17T08:49:53;9.60;99.90
5697;DHT22;2873;50.966;7.210;2024-03-17T08:52:18;9.80;99.90
5697;DHT22;2873;50.966;7.210;2024-03-17T08:54:48;10.00;99.90
5697;DHT22;2873;50.966;7.210;2024-03-17T08:57:14;10.20;99.90
5697;DHT22;2873;50.966;7.210;2024-03-17T08:59:39;10.20;99.90
5697;DHT22;2873;50.966;7.210;2024-03-17T09:02:05;10.50;99.90
5697;DHT22;2873;50.966;7.210;2024-03-17T09:04:37;10.60;99.90
5697;DHT22;2873;50.966;7.210;2024-03-17T09:07:02;10.70;99.90
5697;DHT22;2873;50.966;7.210;2024-03-17T09:09:29;10.80;99.90
5697;DHT22;2873;50.966;7.210;2024-03-17T09:11:55;11.00;99.90
5697;DHT22;2873;50.966;7.210;2024-03-17T09:14:20;11.00;99.90
5697;DHT22;2873;50.966;7.210;2024-03-17T09:16:47;11.10;99.90
5697;DHT22;2873;50.966;7.210;2024-03-17T09:19:13;11.00;99.90
5697;DHT22;2873;50.966;7.210;2024-03-17T09:21:38;11.30;99.90
5697;DHT22;2873;50.966;7.210;2024-03-17T09:24:06;11.40;99.90
5697;DHT22;2873;50.966;7.210;2024-03-17T09:26:33;11.50;99.90
5697;DHT22;2873;50.966;7.210;2024-03-17T09:29:04;11.70;99.90
5697;DHT22;2873;50.966;7.210;2024-03-17T09:31:30;11.60;99.90
5697;DHT22;2873;50.966;7.210;2024-03-17T09:33:59;11.70;99.90
5697;DHT22;2873;50.966;7.210;2024-03-17T09:36:25;11.80;99.90
5697;DHT22;2873;50.966;7.210;2024-03-17T09:38:50;11.80;99.90
5697;DHT22;2873;50.966;7.210;2024-03-17T09:41:24;12.00;99.90
5697;DHT22;2873;50.966;7.210;2024-03-17T09:43:53;12.20;99.90
5697;DHT22;2873;50.966;7.210;2024-03-17T09:46:20;12.10;99.90
5697;DHT22;2873;50.966;7.210;2024-03-17T09:48:47;12.10;99.90
5697;DHT22;2873;50.966;7.210;2024-03-17T09:51:24;12.00;99.90
5697;DHT22;2873;50.966;7.210;2024-03-17T09:53:51;11.90;99.90
5697;DHT22;2873;50.966;7.210;2024-03-17T09:56:19;12.00;99.90
5697;DHT22;2873;50.966;7.210;2024-03-17T09:58:49;12.20;99.90
5697;DHT22;2873;50.966;7.210;2024-03-17T10:01:16;12.30;99.90
5697;DHT22;2873;50.966;7.210;2024-03-17T10:03:52;12.50;99.90
5697;DHT22;2873;50.966;7.210;2024-03-17T10:06:21;12.60;99.90
5697;DHT22;2873;50.966;7.210;2024-03-17T10:08:51;12.80;99.90
5697;DHT22;2873;50.966;7.210;2024-03-17T10:11:18;12.90;99.90
5697;DHT22;2873;50.966;7.210;2024-03-17T10:13:45;12.80;99.90
5697;DHT22;2873;50.966;7.210;2024-03-17T10:16:23;12.80;99.90
5697;DHT22;2873;50.966;7.210;2024-03-17T10:18:49;12.90;99.90
5697;DHT22;2873;50.966;7.210;2024-03-17T10:21:27;13.00;99.90
5697;DHT22;2873;50.966;7.210;2024-03-17T10:24:26;13.20;99.90
5697;DHT22;2873;50.966;7.210;2024-03-17T10:26:55;13.10;99.90
5697;DHT22;2873;50.966;7.210;2024-03-17T10:29:29;13.30;99.90
5697;DHT22;2873;50.966;7.210;2024-03-17T10:32:12;13.20;99.90
5697;DHT22;2873;50.966;7.210;2024-03-17T10:34:38;13.10;99.90
5697;DHT22;2873;50.966;7.210;2024-03-17T10:39:36;13.00;99.90
5697;DHT22;2873;50.966;7.210;2024-03-17T10:42:04;13.00;99.90
5697;DHT22;2873;50.966;7.210;2024-03-17T10:44:37;13.10;99.90
5697;DHT22;2873;50.966;7.210;2024-03-17T10:47:03;13.00;99.90
5697;DHT22;2873;50.966;7.210;2024-03-17T10:49:35;13.00;99.90
5697;DHT22;2873;50.966;7.210;2024-03-17T10:52:03;13.10;99.90
5697;DHT22;2873;50.966;7.210;2024-03-17T10:54:33;13.50;99.90
5697;DHT22;2873;50.966;7.210;2024-03-17T10:57:30;13.80;99.90
5697;DHT22;2873;50.966;7.210;2024-03-17T10:59:57;14.00;99.90
5697;DHT22;2873;50.966;7.210;2024-03-17T11:02:26;14.30;99.90
5697;DHT22;2873;50.966;7.210;2024-03-17T11:04:58;14.30;99.90
5697;DHT22;2873;50.966;7.210;2024-03-17T11:07:24;14.40;99.90
5697;DHT22;2873;50.966;7.210;2024-03-17T11:09:52;14.50;99.90
5697;DHT22;2873;50.966;7.210;2024-03-17T11:17:53;14.90;99.90
5697;DHT22;2873;50.966;7.210;2024-03-17T11:22:50;15.10;99.90
5697;DHT22;2873;50.966;7.210;2024-03-17T11:27:54;15.70;99.90
5697;DHT22;2873;50.966;7.210;2024-03-17T11:39:04;16.80;99.90
5697;DHT22;2873;50.966;7.210;2024-03-17T11:41:47;16.90;99.90
5697;DHT22;2873;50.966;7.210;2024-03-17T11:46:58;17.20;99.90
5697;DHT22;2873;50.966;7.210;2024-03-17T11:49:37;17.50;99.90
5697;DHT22;2873;50.966;7.210;2024-03-17T11:52:14;18.30;99.90
5697;DHT22;2873;50.966;7.210;2024-03-17T11:54:41;18.30;99.90
5697;DHT22;2873;50.966;7.210;2024-03-17T11:57:09;18.70;99.90
5697;DHT22;2873;50.966;7.210;2024-03-17T11:59:35;19.00;99.90
5697;DHT22;2873;50.966;7.210;2024-03-17T12:02:10;19.00;99.90
5697;DHT22;2873;50.966;7.210;2024-03-17T12:04:42;19.10;99.90
5697;DHT22;2873;50.966;7.210;2024-03-17T12:07:12;19.20;99.90
5697;DHT22;2873;50.966;7.210;2024-03-17T12:09:41;19.00;99.90
5697;DHT22;2873;50.966;7.210;2024-03-17T12:12:17;19.00;99.90
5697;DHT22;2873;50.966;7.210;2024-03-17T12:14:43;19.00;99.90
5697;DHT22;2873;50.966;7.210;2024-03-17T12:17:10;18.40;99.90
5697;DHT22;2873;50.966;7.210;2024-03-17T12:19:36;18.20;99.90
5697;DHT22;2873;50.966;7.210;2024-03-17T12:22:04;18.10;99.90
5697;DHT22;2873;50.966;7.210;2024-03-17T12:24:32;17.50;99.90
5697;DHT22;2873;50.966;7.210;2024-03-17T12:26:59;17.40;99.90
5697;DHT22;2873;50.966;7.210;2024-03-17T12:29:27;17.20;99.90
5697;DHT22;2873;50.966;7.210;2024-03-17T12:31:56;17.20;99.90
5697;DHT22;2873;50.966;7.210;2024-03-17T12:34:22;17.00;99.90
5697;DHT22;2873;50.966;7.210;2024-03-17T12:36:50;17.00;99.90
5697;DHT22;2873;50.966;7.210;2024-03-17T12:39:35;16.90;99.90
5697;DHT22;2873;50.966;7.210;2024-03-17T12:42:11;17.10;99.90
5697;DHT22;2873;50.966;7.210;2024-03-17T12:44:40;17.10;99.90
5697;DHT22;2873;50.966;7.210;2024-03-17T12:47:14;16.90;99.90
5697;DHT22;2873;50.966;7.210;2024-03-17T12:49:45;16.90;99.90
5697;DHT22;2873;50.966;7.210;2024-03-17T12:52:18;16.90;99.90
5697;DHT22;2873;50.966;7.210;2024-03-17T12:54:45;16.80;99.90
5697;DHT22;2873;50.966;7.210;2024-03-17T12:57:20;16.90;99.90
5697;DHT22;2873;50.966;7.210;2024-03-17T13:00:17;16.80;99.90
5697;DHT22;2873;50.966;7.210;2024-03-17T13:02:57;16.90;99.90
5697;DHT22;2873;50.966;7.210;2024-03-17T13:05:23;17.00;99.90
5697;DHT22;2873;50.966;7.210;2024-03-17T13:07:49;16.90;99.90
5697;DHT22;2873;50.966;7.210;2024-03-17T13:10:19;16.90;99.90
5697;DHT22;2873;50.966;7.210;2024-03-17T13:12:46;17.00;99.90
5697;DHT22;2873;50.966;7.210;2024-03-17T13:15:13;16.90;99.90
5697;DHT22;2873;50.966;7.210;2024-03-17T13:17:41;16.80;99.90
5697;DHT22;2873;50.966;7.210;2024-03-17T13:20:16;16.80;99.90
5697;DHT22;2873;50.966;7.210;2024-03-17T13:22:45;16.70;99.90
5697;DHT22;2873;50.966;7.210;2024-03-17T13:25:18;16.60;99.90
5697;DHT22;2873;50.966;7.210;2024-03-17T13:27:47;16.50;99.90
5697;DHT22;2873;50.966;7.210;2024-03-17T13:30:16;16.50;99.90
5697;DHT22;2873;50.966;7.210;2024-03-17T13:32:42;16.20;99.90
5697;DHT22;2873;50.966;7.210;2024-03-17T13:35:15;16.10;99.90
5697;DHT22;2873;50.966;7.210;2024-03-17T13:37:43;16.40;99.90
5697;DHT22;2873;50.966;7.210;2024-03-17T13:40:09;16.00;99.90
5697;DHT22;2873;50.966;7.210;2024-03-17T13:42:40;16.00;99.90
5697;DHT22;2873;50.966;7.210;2024-03-17T13:45:10;15.80;99.90
5697;DHT22;2873;50.966;7.210;2024-03-17T13:47:37;15.90;99.90
5697;DHT22;2873;50.966;7.210;2024-03-17T13:50:02;15.80;99.90
5697;DHT22;2873;50.966;7.210;2024-03-17T13:52:32;15.80;99.90
5697;DHT22;2873;50.966;7.210;2024-03-17T13:54:58;15.90;99.90
5697;DHT22;2873;50.966;7.210;2024-03-17T13:57:25;15.80;99.90
5697;DHT22;2873;50.966;7.210;2024-03-17T13:59:50;15.70;99.90
5697;DHT22;2873;50.966;7.210;2024-03-17T14:02:17;15.70;99.90
5697;DHT22;2873;50.966;7.210;2024-03-17T14:04:44;15.70;99.90
5697;DHT22;2873;50.966;7.210;2024-03-17T14:07:09;15.60;99.90
5697;DHT22;2873;50.966;7.210;2024-03-17T14:09:35;15.80;99.90
5697;DHT22;2873;50.966;7.210;2024-03-17T14:12:01;15.60;99.90
5697;DHT22;2873;50.966;7.210;2024-03-17T14:14:27;15.60;99.90
5697;DHT22;2873;50.966;7.210;2024-03-17T14:16:52;15.60;99.90
5697;DHT22;2873;50.966;7.210;2024-03-17T14:19:19;15.60;99.90
5697;DHT22;2873;50.966;7.210;2024-03-17T14:21:44;15.70;99.90
5697;DHT22;2873;50.966;7.210;2024-03-17T14:24:10;15.80;99.90
5697;DHT22;2873;50.966;7.210;2024-03-17T14:26:36;15.70;99.90
5697;DHT22;2873;50.966;7.210;2024-03-17T14:29:02;15.60;99.90
5697;DHT22;2873;50.966;7.210;2024-03-17T14:31:34;15.50;99.90
5697;DHT22;2873;50.966;7.210;2024-03-17T14:34:05;15.50;99.90
5697;DHT22;2873;50.966;7.210;2024-03-17T14:36:32;15.60;99.90
5697;DHT22;2873;50.966;7.210;2024-03-17T14:38:59;15.70;99.90
5697;DHT22;2873;50.966;7.210;2024-03-17T14:41:27;15.70;99.90
5697;DHT22;2873;50.966;7.210;2024-03-17T14:43:52;15.70;99.90
5697;DHT22;2873;50.966;7.210;2024-03-17T14:46:18;15.90;99.90
5697;DHT22;2873;50.966;7.210;2024-03-17T14:48:43;15.90;99.90
5697;DHT22;2873;50.966;7.210;2024-03-17T14:51:10;15.80;99.90
5697;DHT22;2873;50.966;7.210;2024-03-17T14:53:36;15.80;99.90
5697;DHT22;2873;50.966;7.210;2024-03-17T14:56:14;15.80;99.90
5697;DHT22;2873;50.966;7.210;2024-03-17T14:58:39;15.80;99.90
5697;DHT22;2873;50.966;7.210;2024-03-17T15:01:05;15.80;99.90
5697;DHT22;2873;50.966;7.210;2024-03-17T15:03:30;16.00;99.90
5697;DHT22;2873;50.966;7.210;2024-03-17T15:05:56;16.10;99.90
5697;DHT22;2873;50.966;7.210;2024-03-17T15:08:21;16.10;99.90
5697;DHT22;2873;50.966;7.210;2024-03-17T15:10:47;16.10;99.90
5697;DHT22;2873;50.966;7.210;2024-03-17T15:13:12;16.20;99.90
5697;DHT22;2873;50.966;7.210;2024-03-17T15:15:40;16.20;99.90
5697;DHT22;2873;50.966;7.210;2024-03-17T15:18:06;16.50;99.90
5697;DHT22;2873;50.966;7.210;2024-03-17T15:20:31;16.70;99.90
5697;DHT22;2873;50.966;7.210;2024-03-17T15:22:57;16.70;99.90
5697;DHT22;2873;50.966;7.210;2024-03-17T15:25:23;16.80;99.90
5697;DHT22;2873;50.966;7.210;2024-03-17T15:27:50;17.00;99.90
5697;DHT22;2873;50.966;7.210;2024-03-17T15:30:17;17.10;99.90
5697;DHT22;2873;50.966;7.210;2024-03-17T15:32:51;17.30;99.90
5697;DHT22;2873;50.966;7.210;2024-03-17T15:35:20;17.50;99.90
5697;DHT22;2873;50.966;7.210;2024-03-17T15:37:46;17.60;99.90
5697;DHT22;2873;50.966;7.210;2024-03-17T15:40:11;18.30;99.90
5697;DHT22;2873;50.966;7.210;2024-03-17T15:42:49;18.30;99.90
5697;DHT22;2873;50.966;7.210;2024-03-17T15:45:16;18.10;99.90
5697;DHT22;2873;50.966;7.210;2024-03-17T15:47:43;18.10;99.90
5697;DHT22;2873;50.966;7.210;2024-03-17T15:50:10;17.90;99.90
5697;DHT22;2873;50.966;7.210;2024-03-17T15:52:36;17.70;99.90
5697;DHT22;2873;50.966;7.210;2024-03-17T15:55:03;17.70;99.90
5697;DHT22;2873;50.966;7.210;2024-03-17T15:57:30;17.40;99.90
5697;DHT22;2873;50.966;7.210;2024-03-17T15:59:56;17.10;99.90
5697;DHT22;2873;50.966;7.210;2024-03-17T16:02:23;17.00;99.90
5697;DHT22;2873;50.966;7.210;2024-03-17T16:04:50;16.90;99.90
5697;DHT22;2873;50.966;7.210;2024-03-17T16:07:19;16.70;99.90
5697;DHT22;2873;50.966;7.210;2024-03-17T16:09:46;16.70;99.90
5697;DHT22;2873;50.966;7.210;2024-03-17T16:12:13;16.50;99.90
5697;DHT22;2873;50.966;7.210;2024-03-17T16:14:41;16.50;99.90
5697;DHT22;2873;50.966;7.210;2024-03-17T16:17:07;16.60;99.90
5697;DHT22;2873;50.966;7.210;2024-03-17T16:19:34;16.60;99.90
5697;DHT22;2873;50.966;7.210;2024-03-17T16:22:01;16.40;99.90
5697;DHT22;2873;50.966;7.210;2024-03-17T16:24:31;16.10;99.90
5697;DHT22;2873;50.966;7.210;2024-03-17T16:26:57;15.80;99.90
5697;DHT22;2873;50.966;7.210;2024-03-17T16:29:23;15.80;99.90
5697;DHT22;2873;50.966;7.210;2024-03-17T16:31:49;15.90;99.90
5697;DHT22;2873;50.966;7.210;2024-03-17T16:34:15;15.90;99.90
5697;DHT22;2873;50.966;7.210;2024-03-17T16:36:42;15.60;99.90
5697;DHT22;2873;50.966;7.210;2024-03-17T16:39:10;15.50;99.90
5697;DHT22;2873;50.966;7.210;2024-03-17T16:41:37;15.50;99.90